Time;durP1;ratioP1;P1;durP2;ratioP2;P2;SDS_P1;SDS_P2;PMS_P1;PMS_P2;Temp;Humidity;BMP_temperature;BMP_pressure;BME280_temperature;BME280_humidity;BME280_pressure;Samples;Min_cycle;Max_cycle;Signal;HPM_P1;HPM_P2
2022/03/15 00:02:03;;;;;;;;;;;;;;;15.47;35.39;101550.19;4415342;32;19989;-74
2022/03/15 00:04:29;;;;;;;;;;;;;;;15.42;35.41;101550.72;4419701;32;19991;-74
2022/03/15 00:07:13;;;;;;;;;;;;;;;15.24;35.92;101551.25;4418495;32;20247;-73
2022/03/15 00:09:45;;;;;;;;;;;;;;;15.17;36.15;101557.16;4403770;32;20017;-74
2022/03/15 00:12:11;;;;;;;;;;;;;;;15.13;36.33;101562.09;4415806;32;20015;-73
2022/03/15 00:14:37;;;;;;;;;;;;;;;14.93;36.75;101555.03;4415853;32;20351;-74
2022/03/15 00:17:08;;;;;;;;;;;;;;;14.99;36.54;101558.91;4414854;32;20390;-73
2022/03/15 00:19:34;;;;;;;;;;;;;;;14.86;36.48;101555.22;4416464;32;19962;-74
2022/03/15 00:22:04;;;;;;;;;;;;;;;14.96;36.55;101556.97;4419941;32;20432;-74
2022/03/15 00:24:33;;;;;;;;;;;;;;;14.93;36.72;101560.69;4417966;32;19977;-74
2022/03/15 00:27:00;;;;;;;;;;;;;;;14.81;36.83;101547.28;4418169;32;20003;-73
2022/03/15 00:29:50;;;;;;;;;;;;;;;14.65;37.16;101545.31;4417123;32;19958;-74
2022/03/15 00:32:22;;;;;;;;;;;;;;;14.47;37.57;101539.31;4417228;32;21425;-73
2022/03/15 00:34:48;;;;;;;;;;;;;;;14.43;37.57;101540.66;4418458;32;20278;-74
2022/03/15 00:37:14;;;;;;;;;;;;;;;14.61;37.36;101529.63;4419769;32;19949;-73
2022/03/15 00:39:41;;;;;;;;;;;;;;;14.73;37.13;101532.50;4421805;32;20448;-73
2022/03/15 00:42:26;;;;;;;;;;;;;;;14.59;37.47;101537.78;4413636;32;20369;-73
2022/03/15 00:44:58;;;;;;;;;;;;;;;14.36;37.88;101532.37;4417178;32;19964;-73
2022/03/15 00:47:25;;;;;;;;;;;;;;;14.23;38.21;101545.63;4415872;32;20311;-73
2022/03/15 00:49:51;;;;;;;;;;;;;;;14.08;38.44;101533.84;4418116;32;20001;-74
2022/03/15 00:52:17;;;;;;;;;;;;;;;13.95;38.69;101533.78;4416480;32;20307;-73
2022/03/15 00:54:47;;;;;;;;;;;;;;;14.12;38.37;101548.75;4415620;32;19989;-73
2022/03/15 00:57:13;;;;;;;;;;;;;;;14.20;38.22;101540.84;4421332;32;19968;-73
2022/03/15 00:59:39;;;;;;;;;;;;;;;14.05;38.72;101546.06;4420209;32;20436;-73
2022/03/15 01:02:05;;;;;;;;;;;;;;;14.02;38.75;101547.75;4418338;32;20056;-73
2022/03/15 01:04:32;;;;;;;;;;;;;;;13.84;38.85;101555.87;4417158;32;20367;-73
2022/03/15 01:06:57;;;;;;;;;;;;;;;13.88;38.85;101542.47;4419146;32;20010;-73
2022/03/15 01:09:36;;;;;;;;;;;;;;;13.80;38.96;101549.53;4419024;32;19979;-73
2022/03/15 01:12:02;;;;;;;;;;;;;;;14.08;38.72;101550.84;4419084;32;19989;-73
2022/03/15 01:14:32;;;;;;;;;;;;;;;14.18;38.48;101544.12;4417916;32;20283;-73
2022/03/15 01:16:58;;;;;;;;;;;;;;;14.14;38.45;101539.81;4416689;32;19985;-73
2022/03/15 01:19:24;;;;;;;;;;;;;;;13.97;38.76;101544.66;4413774;32;19958;-73
2022/03/15 01:21:51;;;;;;;;;;;;;;;13.96;38.63;101535.37;4415573;32;20047;-73
2022/03/15 01:24:37;;;;;;;;;;;;;;;13.96;38.66;101541.03;4413665;32;20001;-73
2022/03/15 01:27:24;;;;;;;;;;;;;;;13.74;39.18;101539.16;4416246;32;19945;-73
2022/03/15 01:29:49;;;;;;;;;;;;;;;13.89;38.95;101540.41;4416571;32;20137;-73
2022/03/15 01:32:17;;;;;;;;;;;;;;;13.77;39.34;101532.63;4416206;32;19989;-73
2022/03/15 01:34:42;;;;;;;;;;;;;;;13.89;39.06;101537.59;4417840;32;19969;-73
2022/03/15 01:37:08;;;;;;;;;;;;;;;13.79;39.23;101530.16;4400933;32;20001;-73
2022/03/15 01:39:54;;;;;;;;;;;;;;;13.69;39.36;101534.84;4373759;32;20019;-73
2022/03/15 01:42:22;;;;;;;;;;;;;;;13.51;39.57;101534.47;4373915;32;20009;-73
2022/03/15 01:44:53;;;;;;;;;;;;;;;13.52;39.52;101526.78;4373786;32;19954;-73
2022/03/15 01:47:37;;;;;;;;;;;;;;;13.59;39.46;101532.25;4373101;32;20603;-73
2022/03/15 01:50:06;;;;;;;;;;;;;;;13.44;39.55;101519.72;4374013;32;20105;-73
2022/03/15 01:52:32;;;;;;;;;;;;;;;13.36;39.49;101526.75;4375115;32;20083;-73
2022/03/15 01:55:00;;;;;;;;;;;;;;;13.25;39.59;101526.19;4372965;32;19974;-73
2022/03/15 01:57:49;;;;;;;;;;;;;;;13.24;39.61;101522.59;4375388;32;20026;-73
2022/03/15 02:00:19;;;;;;;;;;;;;;;13.12;39.68;101525.28;4373964;32;20352;-73
2022/03/15 02:03:05;;;;;;;;;;;;;;;13.20;39.55;101527.50;4373507;32;20004;-73
2022/03/15 02:05:33;;;;;;;;;;;;;;;12.98;40.17;101520.69;4371720;32;20002;-73
2022/03/15 02:08:17;;;;;;;;;;;;;;;12.96;40.09;101516.72;4374646;32;19950;-73
2022/03/15 02:11:04;;;;;;;;;;;;;;;12.83;40.21;101513.78;4373662;32;19962;-73
2022/03/15 02:13:34;;;;;;;;;;;;;;;13.05;39.90;101509.28;4373372;32;20002;-73
2022/03/15 02:16:00;;;;;;;;;;;;;;;12.92;39.98;101505.47;4374323;32;20025;-73
2022/03/15 02:18:44;;;;;;;;;;;;;;;12.68;40.48;101494.72;4373620;32;20024;-73
2022/03/15 02:21:10;;;;;;;;;;;;;;;12.70;40.38;101503.56;4359573;32;19962;-73
2022/03/15 02:23:36;;;;;;;;;;;;;;;12.58;40.56;101492.91;4374357;32;20010;-73
2022/03/15 02:26:23;;;;;;;;;;;;;;;12.33;41.01;101486.97;4374917;32;19966;-73
2022/03/15 02:28:55;;;;;;;;;;;;;;;12.58;40.70;101490.87;4376030;32;19950;-73
2022/03/15 02:31:24;;;;;;;;;;;;;;;12.57;40.73;101489.28;4414519;32;20026;-73
2022/03/15 02:34:08;;;;;;;;;;;;;;;12.68;40.54;101484.22;4418289;32;20000;-73
2022/03/15 02:36:36;;;;;;;;;;;;;;;12.56;40.75;101481.25;4417060;32;19995;-73
2022/03/15 02:39:22;;;;;;;;;;;;;;;12.58;40.59;101476.75;4418598;32;20399;-73
2022/03/15 02:41:53;;;;;;;;;;;;;;;12.57;40.74;101480.00;4414693;32;19957;-73
2022/03/15 02:44:22;;;;;;;;;;;;;;;12.67;40.55;101490.31;4416158;32;20045;-73
2022/03/15 02:46:48;;;;;;;;;;;;;;;12.59;40.80;101486.84;4414906;32;20000;-73
2022/03/15 02:49:16;;;;;;;;;;;;;;;12.46;nan;101487.91;4415107;32;20000;-73
2022/03/15 02:51:58;;;;;;;;;;;;;;;12.36;41.22;101488.94;4419275;32;19958;-73
2022/03/15 02:54:24;;;;;;;;;;;;;;;12.33;41.16;101489.78;4413247;32;21473;-73
2022/03/15 02:56:51;;;;;;;;;;;;;;;12.41;40.95;101483.56;4416698;32;19991;-73
2022/03/15 02:59:17;;;;;;;;;;;;;;;12.38;41.02;101480.81;4417389;32;19973;-73
2022/03/15 03:01:44;;;;;;;;;;;;;;;12.24;41.58;101483.91;4418678;32;20296;-73
2022/03/15 03:04:29;;;;;;;;;;;;;;;12.29;41.29;101483.41;4414819;32;19960;-73
2022/03/15 03:07:03;;;;;;;;;;;;;;;12.18;41.32;101483.59;4416132;32;19990;-73
2022/03/15 03:09:34;;;;;;;;;;;;;;;12.12;41.52;101485.31;4416207;32;19949;-73
2022/03/15 03:12:16;;;;;;;;;;;;;;;12.00;41.56;101474.69;4414399;32;19973;-73
2022/03/15 03:15:02;;;;;;;;;;;;;;;11.95;41.61;101470.34;4414152;32;20480;-73
2022/03/15 03:17:40;;;;;;;;;;;;;;;11.78;41.79;101467.81;4412223;32;20204;-73
2022/03/15 03:20:27;;;;;;;;;;;;;;;11.76;41.77;101467.47;4416650;32;20026;-73
2022/03/15 03:23:02;;;;;;;;;;;;;;;11.76;41.67;101461.81;4417443;32;19945;-73
2022/03/15 03:25:41;;;;;;;;;;;;;;;11.66;41.98;101460.00;4418439;32;20323;-73
2022/03/15 03:28:08;;;;;;;;;;;;;;;11.58;42.12;101450.00;4416690;32;19988;-73
2022/03/15 03:30:58;;;;;;;;;;;;;;;11.75;41.85;101451.75;4418166;32;19992;-73
2022/03/15 03:33:44;;;;;;;;;;;;;;;11.55;42.33;101454.50;4418459;32;20198;-73
2022/03/15 03:36:31;;;;;;;;;;;;;;;11.55;42.08;101448.03;4420327;32;19981;-73
2022/03/15 03:39:04;;;;;;;;;;;;;;;11.56;42.38;101441.16;4420348;32;20654;-73
2022/03/15 03:41:29;;;;;;;;;;;;;;;11.70;41.97;101444.59;4420151;32;19973;-73
2022/03/15 03:44:04;;;;;;;;;;;;;;;11.62;42.10;101440.28;4417995;32;20006;-73
2022/03/15 03:46:47;;;;;;;;;;;;;;;11.57;42.16;101443.56;4417222;32;20002;-73
2022/03/15 03:49:33;;;;;;;;;;;;;;;11.48;42.05;101437.66;4419780;32;20737;-73
2022/03/15 03:52:20;;;;;;;;;;;;;;;11.64;41.89;101445.50;4418750;32;20021;-73
2022/03/15 03:54:50;;;;;;;;;;;;;;;11.51;42.28;101444.50;4419086;32;20331;-73
2022/03/15 03:57:36;;;;;;;;;;;;;;;11.44;42.55;101444.59;4415207;32;20053;-73
2022/03/15 04:00:22;;;;;;;;;;;;;;;11.46;42.31;101451.41;4416492;32;20391;-73
2022/03/15 04:02:57;;;;;;;;;;;;;;;11.35;42.32;101447.19;4416861;32;20485;-73
2022/03/15 04:05:24;;;;;;;;;;;;;;;11.52;42.12;101438.44;4417321;32;20439;-73
2022/03/15 04:07:52;;;;;;;;;;;;;;;11.54;41.96;101444.41;4403012;32;19985;-73
2022/03/15 04:10:37;;;;;;;;;;;;;;;11.50;42.06;101446.50;4417865;32;20504;-73
2022/03/15 04:13:29;;;;;;;;;;;;;;;11.32;42.48;101443.19;4417780;32;19989;-73
2022/03/15 04:15:56;;;;;;;;;;;;;;;11.30;42.28;101447.66;4418949;32;19961;-73
2022/03/15 04:18:43;;;;;;;;;;;;;;;11.14;42.67;101441.88;4419646;32;20342;-73
2022/03/15 04:21:09;;;;;;;;;;;;;;;11.25;41.95;101443.28;4419912;32;19964;-73
2022/03/15 04:23:35;;;;;;;;;;;;;;;11.08;42.60;101452.81;4420409;32;20515;-73
2022/03/15 04:26:05;;;;;;;;;;;;;;;11.11;42.77;101442.72;4418388;32;20439;-73
2022/03/15 04:28:39;;;;;;;;;;;;;;;11.22;42.65;101444.16;4419448;32;19964;-73
2022/03/15 04:31:25;;;;;;;;;;;;;;;11.09;42.93;101451.59;4414524;32;19950;-73
2022/03/15 04:34:12;;;;;;;;;;;;;;;11.20;42.58;101435.31;4415270;32;19969;-73
2022/03/15 04:36:59;;;;;;;;;;;;;;;11.19;42.66;101435.75;4417638;32;19970;-73
2022/03/15 04:39:35;;;;;;;;;;;;;;;11.18;42.46;101437.78;4418486;32;20617;-73
2022/03/15 04:42:21;;;;;;;;;;;;;;;11.17;42.51;101443.84;4417824;32;20001;-73
2022/03/15 04:45:08;;;;;;;;;;;;;;;11.13;42.58;101435.44;4419494;32;19946;-73
2022/03/15 04:47:58;;;;;;;;;;;;;;;11.05;42.78;101430.34;4420076;32;21161;-73
2022/03/15 04:50:42;;;;;;;;;;;;;;;11.10;42.58;101433.47;4420980;32;20013;-73
2022/03/15 04:53:31;;;;;;;;;;;;;;;10.95;42.83;101426.44;4409854;32;19953;-73
2022/03/15 04:56:22;;;;;;;;;;;;;;;10.89;43.05;101427.38;4399781;32;19945;-73
2022/03/15 04:58:57;;;;;;;;;;;;;;;10.92;42.92;101432.16;4397445;32;20104;-73
2022/03/15 05:01:40;;;;;;;;;;;;;;;10.93;42.78;101420.47;4400112;32;19950;-73
2022/03/15 05:04:32;;;;;;;;;;;;;;;10.98;42.78;101419.19;4400132;32;19986;-73
2022/03/15 05:07:13;;;;;;;;;;;;;;;10.98;42.74;101403.06;4399246;32;20001;-73
2022/03/15 05:11:06;;;;;;;;;;;;;;;10.97;42.62;101407.13;4399343;32;20241;-73
2022/03/15 05:12:46;;;;;;;;;;;;;;;10.81;43.44;101406.16;4395721;32;20449;-74
2022/03/15 05:15:37;;;;;;;;;;;;;;;10.87;43.09;101398.81;4373111;32;20005;-73
2022/03/15 05:18:34;;;;;;;;;;;;;;;10.94;43.01;101407.16;4396777;32;20021;-73
2022/03/15 05:21:05;;;;;;;;;;;;;;;10.87;43.02;101402.44;4396829;32;19954;-73
2022/03/15 05:23:35;;;;;;;;;;;;;;;10.92;42.71;101401.94;4397168;32;19953;-73
2022/03/15 05:26:22;;;;;;;;;;;;;;;11.00;42.51;101397.00;4397975;32;19950;-73
2022/03/15 05:29:14;;;;;;;;;;;;;;;10.92;43.06;101396.31;4393140;32;19954;-73
2022/03/15 05:32:00;;;;;;;;;;;;;;;11.04;42.92;101398.53;4392644;32;19958;-73
2022/03/15 05:34:46;;;;;;;;;;;;;;;11.01;42.95;101398.59;4393692;32;19946;-73
2022/03/15 05:37:31;;;;;;;;;;;;;;;10.93;43.15;101397.13;4393286;32;19966;-73
2022/03/15 05:40:20;;;;;;;;;;;;;;;10.98;43.31;101388.22;4376367;32;20051;-73
2022/03/15 05:43:05;;;;;;;;;;;;;;;10.99;43.44;101386.97;4367334;32;20018;-72
2022/03/15 05:45:36;;;;;;;;;;;;;;;11.05;43.25;101393.72;4374370;32;20352;-72
2022/03/15 05:48:22;;;;;;;;;;;;;;;11.13;43.10;101384.72;4373837;32;19957;-72
2022/03/15 05:50:50;;;;;;;;;;;;;;;11.01;43.60;101396.59;4376372;32;20002;-72
2022/03/15 05:53:20;;;;;;;;;;;;;;;11.06;43.29;101389.69;4374492;32;20044;-72
2022/03/15 05:56:11;;;;;;;;;;;;;;;11.05;43.18;101388.09;4375090;32;20054;-73
2022/03/15 05:59:02;;;;;;;;;;;;;;;11.19;42.94;101385.03;4366607;32;19962;-73
2022/03/15 06:01:49;;;;;;;;;;;;;;;11.22;42.74;101384.19;4374917;32;19982;-73
2022/03/15 06:04:37;;;;;;;;;;;;;;;11.06;42.97;101379.22;4380607;32;20000;-73
2022/03/15 06:07:03;;;;;;;;;;;;;;;11.15;42.89;101378.66;4392075;32;19949;-73
2022/03/15 06:09:29;;;;;;;;;;;;;;;11.26;42.86;101377.25;4393302;32;19968;-73
2022/03/15 06:11:58;;;;;;;;;;;;;;;11.16;42.91;101368.97;4392971;32;20016;-73
2022/03/15 06:14:49;;;;;;;;;;;;;;;11.12;42.97;101368.25;4387204;32;19958;-73
2022/03/15 06:17:23;;;;;;;;;;;;;;;11.09;42.83;101366.28;4402133;32;19953;-73
2022/03/15 06:20:17;;;;;;;;;;;;;;;11.13;42.95;101362.19;4416800;32;19992;-73
2022/03/15 06:23:09;;;;;;;;;;;;;;;11.08;43.12;101359.06;4415673;32;19988;-73
2022/03/15 06:25:38;;;;;;;;;;;;;;;11.03;42.98;101357.53;4418706;32;19993;-73
2022/03/15 06:28:25;;;;;;;;;;;;;;;11.12;42.68;101357.78;4418285;32;19953;-73
2022/03/15 06:30:53;;;;;;;;;;;;;;;10.96;43.13;101346.38;4415483;32;20071;-73
2022/03/15 06:33:29;;;;;;;;;;;;;;;11.13;42.83;101348.09;4416002;32;20003;-73
2022/03/15 06:36:17;;;;;;;;;;;;;;;11.16;42.87;101360.53;4415476;32;19964;-73
2022/03/15 06:38:45;;;;;;;;;;;;;;;11.21;42.88;101357.25;4418464;32;20335;-73
2022/03/15 06:41:12;;;;;;;;;;;;;;;11.27;42.66;101363.97;4403325;32;20013;-73
2022/03/15 06:43:45;;;;;;;;;;;;;;;11.34;42.74;101366.66;4418943;32;19991;-73
2022/03/15 06:46:32;;;;;;;;;;;;;;;11.27;42.79;101369.63;4413237;32;20477;-73
2022/03/15 06:49:18;;;;;;;;;;;;;;;11.31;42.74;101375.97;4416103;32;20015;-73
2022/03/15 06:52:04;;;;;;;;;;;;;;;11.42;42.68;101379.41;4414957;32;19985;-72
2022/03/15 06:54:29;;;;;;;;;;;;;;;11.45;42.70;101382.16;4418565;32;19945;-73
2022/03/15 06:56:57;;;;;;;;;;;;;;;11.51;42.71;101379.66;4414444;32;20359;-73
2022/03/15 06:59:23;;;;;;;;;;;;;;;11.57;42.78;101370.28;4417277;32;19983;-73
2022/03/15 07:01:49;;;;;;;;;;;;;;;11.61;42.64;101381.50;4421487;32;20007;-73
2022/03/15 07:04:29;;;;;;;;;;;;;;;11.86;42.05;101367.75;4420696;32;19950;-73
2022/03/15 07:07:00;;;;;;;;;;;;;;;12.06;41.88;101374.22;4419409;32;19993;-73
2022/03/15 07:09:50;;;;;;;;;;;;;;;11.85;42.26;101369.00;4420378;32;19949;-73
2022/03/15 07:12:38;;;;;;;;;;;;;;;12.14;41.70;101370.00;4415223;32;20005;-73
2022/03/15 07:15:10;;;;;;;;;;;;;;;12.21;41.33;101354.97;4420255;32;20038;-73
2022/03/15 07:17:54;;;;;;;;;;;;;;;12.22;41.45;101348.91;4421456;32;20500;-73
2022/03/15 07:20:41;;;;;;;;;;;;;;;12.45;41.33;101354.44;4419122;32;19968;-73
2022/03/15 07:23:16;;;;;;;;;;;;;;;12.26;41.15;101352.44;4417496;32;19987;-73
2022/03/15 07:25:43;;;;;;;;;;;;;;;12.56;40.96;101351.38;4420576;32;20001;-73
2022/03/15 07:28:14;;;;;;;;;;;;;;;12.70;40.78;101345.41;4420739;32;19962;-73
2022/03/15 07:30:43;;;;;;;;;;;;;;;12.80;40.99;101350.00;4415758;32;20008;-73
2022/03/15 07:33:27;;;;;;;;;;;;;;;12.87;41.10;101345.00;4416132;32;20347;-73
2022/03/15 07:36:12;;;;;;;;;;;;;;;13.09;40.38;101339.63;4418030;32;19993;-73
2022/03/15 07:38:38;;;;;;;;;;;;;;;13.20;40.46;101345.84;4415439;32;19985;-73
2022/03/15 07:41:07;;;;;;;;;;;;;;;13.33;39.86;101346.69;4416678;32;20644;-73
2022/03/15 07:43:33;;;;;;;;;;;;;;;13.52;40.00;101345.78;4404164;32;19997;-73
2022/03/15 07:45:59;;;;;;;;;;;;;;;13.69;39.72;101350.97;4420008;32;19961;-73
2022/03/15 07:48:36;;;;;;;;;;;;;;;13.80;39.42;101351.47;4416373;32;20245;-73
2022/03/15 07:51:23;;;;;;;;;;;;;;;14.03;38.93;101356.09;4408248;32;19978;-73
2022/03/15 07:53:50;;;;;;;;;;;;;;;14.06;38.85;101356.00;4412185;32;20399;-73
2022/03/15 07:56:23;;;;;;;;;;;;;;;14.38;38.52;101360.75;4414788;32;20001;-73
2022/03/15 07:59:09;;;;;;;;;;;;;;;14.45;38.24;101357.72;4414429;32;20009;-73
2022/03/15 08:02:10;;;;;;;;;;;;;;;14.74;37.78;101357.62;4412631;32;20581;-73
2022/03/15 08:04:35;;;;;;;;;;;;;;;14.96;37.73;101359.34;4415411;32;19992;-73
2022/03/15 08:07:22;;;;;;;;;;;;;;;15.24;37.13;101351.94;4411084;32;19957;-73
2022/03/15 08:09:47;;;;;;;;;;;;;;;15.46;36.07;101352.84;4414851;32;20235;-73
2022/03/15 08:12:33;;;;;;;;;;;;;;;15.80;35.87;101344.34;4402344;32;19985;-73
2022/03/15 08:14:59;;;;;;;;;;;;;;;16.04;35.45;101345.50;4416408;32;20006;-73
2022/03/15 08:17:25;;;;;;;;;;;;;;;16.34;35.14;101332.59;4411967;32;20002;-74
2022/03/15 08:20:15;;;;;;;;;;;;;;;16.44;34.74;101339.97;4410928;32;19997;-73
2022/03/15 08:22:42;;;;;;;;;;;;;;;16.55;34.00;101340.34;4414746;32;20261;-74
2022/03/15 08:25:29;;;;;;;;;;;;;;;17.10;33.97;101345.81;4412944;32;20035;-74
2022/03/15 08:28:00;;;;;;;;;;;;;;;17.47;32.76;101343.88;4410911;32;20000;-74
2022/03/15 08:30:52;;;;;;;;;;;;;;;17.69;32.69;101339.63;4402061;32;20312;-74
2022/03/15 08:33:29;;;;;;;;;;;;;;;18.32;32.08;101335.16;4411253;32;20642;-74
2022/03/15 08:35:55;;;;;;;;;;;;;;;18.91;31.60;101320.91;4412406;32;19954;-73
2022/03/15 08:38:41;;;;;;;;;;;;;;;19.28;30.53;101319.47;4409529;32;20611;-73
2022/03/15 08:41:27;;;;;;;;;;;;;;;19.99;29.48;101327.19;4409496;32;19957;-73
2022/03/15 08:44:12;;;;;;;;;;;;;;;20.86;28.56;101322.31;4411483;32;19949;-73
2022/03/15 08:46:39;;;;;;;;;;;;;;;21.25;27.39;101318.00;4401751;32;19992;-73
2022/03/15 08:49:12;;;;;;;;;;;;;;;21.57;27.04;101321.84;4413670;32;19954;-74
2022/03/15 08:51:37;;;;;;;;;;;;;;;22.22;26.50;101323.16;4396809;32;20427;-74
2022/03/15 08:54:25;;;;;;;;;;;;;;;22.46;26.17;101324.41;4413297;32;21256;-73
2022/03/15 08:57:01;;;;;;;;;;;;;;;22.56;26.00;101330.81;4412034;32;19964;-75
2022/03/15 08:59:47;;;;;;;;;;;;;;;22.43;25.90;101321.81;4403437;32;19997;-74
2022/03/15 09:02:12;;;;;;;;;;;;;;;22.09;26.05;101326.38;4414799;32;20007;-74
2022/03/15 09:04:43;;;;;;;;;;;;;;;21.92;26.37;101319.69;4412037;32;20029;-75
2022/03/15 09:07:17;;;;;;;;;;;;;;;22.05;26.39;101316.44;4412955;32;19974;-72
2022/03/15 09:09:44;;;;;;;;;;;;;;;21.58;27.30;101309.06;4414161;32;20239;-74
2022/03/15 09:12:21;;;;;;;;;;;;;;;21.65;27.18;101308.63;4412537;32;20003;-73
2022/03/15 09:14:51;;;;;;;;;;;;;;;21.84;27.26;101314.91;4414520;32;20519;-73
2022/03/15 09:17:18;;;;;;;;;;;;;;;21.48;27.48;101311.28;4412540;32;20296;-74
2022/03/15 09:19:43;;;;;;;;;;;;;;;21.68;27.39;101301.91;4409234;32;20001;-73
2022/03/15 09:22:10;;;;;;;;;;;;;;;21.90;27.22;101316.53;4411661;32;19970;-74
2022/03/15 09:24:37;;;;;;;;;;;;;;;21.83;26.94;101316.19;4413191;32;21268;-73
2022/03/15 09:27:21;;;;;;;;;;;;;;;21.42;27.25;101318.25;4412124;32;20015;-73
2022/03/15 09:29:49;;;;;;;;;;;;;;;21.69;27.39;101315.72;4410467;32;20383;-73
2022/03/15 09:32:22;;;;;;;;;;;;;;;21.90;27.21;101313.66;4411932;32;20011;-74
2022/03/15 09:34:49;;;;;;;;;;;;;;;21.53;27.46;101307.72;4413020;32;20290;-73
2022/03/15 09:37:15;;;;;;;;;;;;;;;21.77;27.36;101304.66;4411925;32;20507;-72
2022/03/15 09:39:41;;;;;;;;;;;;;;;21.51;27.80;101304.56;4413646;32;19953;-72
2022/03/15 09:42:09;;;;;;;;;;;;;;;21.57;27.94;101305.41;4411224;32;20028;-71
2022/03/15 09:44:38;;;;;;;;;;;;;;;21.44;28.55;101293.53;4400003;32;20008;-72
2022/03/15 09:47:06;;;;;;;;;;;;;;;21.37;28.71;101287.44;4416341;32;20009;-72
2022/03/15 09:49:33;;;;;;;;;;;;;;;21.44;28.99;101293.53;4411478;32;20008;-73
2022/03/15 09:51:59;;;;;;;;;;;;;;;21.30;29.46;101297.22;4411705;32;20009;-73
2022/03/15 09:54:26;;;;;;;;;;;;;;;21.64;29.18;101287.78;4414090;32;19965;-72
2022/03/15 09:57:11;;;;;;;;;;;;;;;21.52;29.40;101288.97;4415151;32;20232;-72
2022/03/15 09:59:37;;;;;;;;;;;;;;;21.38;29.54;101286.94;4411310;32;19997;-72
2022/03/15 10:02:03;;;;;;;;;;;;;;;21.44;29.70;101289.88;4400727;32;20468;-73
2022/03/15 10:04:29;;;;;;;;;;;;;;;21.40;30.07;101283.59;4413506;32;20314;-73
2022/03/15 10:06:57;;;;;;;;;;;;;;;21.79;29.88;101302.09;4411299;32;20001;-73
2022/03/15 10:09:26;;;;;;;;;;;;;;;21.45;30.25;101286.50;4409957;32;20362;-73
2022/03/15 10:11:52;;;;;;;;;;;;;;;22.27;29.38;101285.16;4410090;32;20791;-72
2022/03/15 10:14:19;;;;;;;;;;;;;;;22.79;28.87;101273.09;4411436;32;20037;-72
2022/03/15 10:16:45;;;;;;;;;;;;;;;23.13;28.72;101272.03;4413682;32;19950;-73
2022/03/15 10:19:13;;;;;;;;;;;;;;;23.34;28.34;101278.44;4409981;32;20024;-73
2022/03/15 10:21:46;;;;;;;;;;;;;;;23.30;28.52;101269.28;4409697;32;21039;-72
2022/03/15 10:24:17;;;;;;;;;;;;;;;23.54;28.25;101269.66;4409477;32;19993;-72
2022/03/15 10:26:44;;;;;;;;;;;;;;;24.02;27.61;101272.47;4399006;32;20004;-73
2022/03/15 10:29:13;;;;;;;;;;;;;;;23.73;27.79;101267.09;4414726;32;19985;-73
2022/03/15 10:31:42;;;;;;;;;;;;;;;24.29;27.33;101265.94;4411437;32;20026;-74
2022/03/15 10:34:28;;;;;;;;;;;;;;;24.67;26.83;101273.87;4413116;32;20106;-73
2022/03/15 10:36:56;;;;;;;;;;;;;;;25.57;25.99;101267.37;4405425;32;19997;-73
2022/03/15 10:39:40;;;;;;;;;;;;;;;25.19;26.51;101266.19;4415964;32;20384;-74
2022/03/15 10:42:12;;;;;;;;;;;;;;;25.41;26.39;101266.16;4415542;32;19985;-74
2022/03/15 10:44:50;;;;;;;;;;;;;;;25.83;25.76;101257.03;4413102;32;20315;-73
2022/03/15 10:47:45;;;;;;;;;;;;;;;26.31;25.36;101239.97;4416532;32;19992;-74
2022/03/15 10:50:33;;;;;;;;;;;;;;;26.50;25.25;101243.75;4413022;32;19949;-73
2022/03/15 10:53:18;;;;;;;;;;;;;;;26.35;25.09;101251.25;4404139;32;20008;-73
2022/03/15 10:55:44;;;;;;;;;;;;;;;25.90;25.68;101241.28;4413984;32;19964;-74
2022/03/15 10:58:43;;;;;;;;;;;;;;;25.46;26.17;101235.75;4408135;32;19969;-73
2022/03/15 11:01:29;;;;;;;;;;;;;;;24.53;27.44;101241.13;4413599;32;19981;-74
2022/03/15 11:04:15;;;;;;;;;;;;;;;24.48;27.41;101236.16;4413803;32;19973;-73
2022/03/15 11:06:49;;;;;;;;;;;;;;;24.21;27.74;101236.16;4413065;32;19962;-74
2022/03/15 11:12:06;;;;;;;;;;;;;;;23.48;28.30;101228.62;3941444;32;16042666;-73
2022/03/15 11:14:57;;;;;;;;;;;;;;;23.48;28.30;101228.62;4385546;32;19965;-73
2022/03/15 11:17:53;;;;;;;;;;;;;;;22.82;29.17;101223.28;4381835;32;20345;-74
2022/03/15 11:20:42;;;;;;;;;;;;;;;22.93;28.90;101211.91;4375488;32;19966;-75
2022/03/15 11:23:28;;;;;;;;;;;;;;;23.04;28.79;101208.31;4355802;32;20412;-74
2022/03/15 11:26:21;;;;;;;;;;;;;;;23.20;28.64;101207.59;4349715;32;20030;-73
2022/03/15 11:29:08;;;;;;;;;;;;;;;23.43;28.36;101210.06;4337681;32;19980;-73
2022/03/15 11:31:54;;;;;;;;;;;;;;;23.27;28.41;101210.00;4337848;32;20408;-73
2022/03/15 11:34:46;;;;;;;;;;;;;;;22.77;29.10;101203.94;4332210;32;19951;-73
2022/03/15 11:37:30;;;;;;;;;;;;;;;23.16;28.87;101201.28;4339789;32;20011;-73
2022/03/15 11:40:26;;;;;;;;;;;;;;;23.37;28.71;101194.09;4334171;32;19960;-72
2022/03/15 11:45:55;;;;;;;;;;;;;;;23.01;29.39;101197.84;3949563;32;15723619;-72
2022/03/15 11:49:01;;;;;;;;;;;;;;;23.01;29.39;101197.84;4411037;32;20398;-72
2022/03/15 11:57:02;;;;;;;;;;;;;;;22.83;29.92;101189.66;3949033;32;15724520;-71
2022/03/15 11:59:56;;;;;;;;;;;;;;;22.83;29.92;101189.66;4421478;32;19989;-72
2022/03/15 12:02:49;;;;;;;;;;;;;;;23.08;29.68;101180.91;4416521;32;19977;-71
2022/03/15 12:05:52;;;;;;;;;;;;;;;23.49;29.01;101182.16;4418113;32;20001;-71
2022/03/15 12:08:51;;;;;;;;;;;;;;;23.37;29.11;101194.91;4423097;32;19993;-71
2022/03/15 12:11:38;;;;;;;;;;;;;;;23.72;28.48;101185.87;4420750;32;19968;-71
2022/03/15 12:14:08;;;;;;;;;;;;;;;23.60;28.63;101175.66;4423358;32;19967;-72
2022/03/15 12:16:57;;;;;;;;;;;;;;;23.96;28.22;101168.94;4383083;32;19963;-71
2022/03/15 12:19:47;;;;;;;;;;;;;;;23.97;28.11;101150.38;4379600;32;19988;-72
2022/03/15 12:22:40;;;;;;;;;;;;;;;24.16;28.15;101156.41;4380494;32;19998;-72
2022/03/15 12:25:36;;;;;;;;;;;;;;;24.72;27.09;101158.72;4383396;32;20026;-71
2022/03/15 12:28:05;;;;;;;;;;;;;;;25.91;25.89;101150.56;4385300;32;20017;-72
2022/03/15 12:30:54;;;;;;;;;;;;;;;26.27;25.39;101141.38;4381353;32;20001;-73
2022/03/15 12:34:00;;;;;;;;;;;;;;;27.13;24.51;101133.62;4383563;32;20035;-73
2022/03/15 12:36:38;;;;;;;;;;;;;;;26.83;24.50;101133.72;4382748;32;20281;-73
2022/03/15 12:39:29;;;;;;;;;;;;;;;27.76;23.75;101136.69;4354361;32;20457;-73
2022/03/15 12:42:15;;;;;;;;;;;;;;;27.96;23.19;101133.25;4370323;32;20403;-73
2022/03/15 12:44:59;;;;;;;;;;;;;;;28.78;22.49;101139.69;4382974;32;20043;-73
2022/03/15 12:47:28;;;;;;;;;;;;;;;28.51;22.70;101132.31;4392781;32;19977;-73
2022/03/15 12:50:14;;;;;;;;;;;;;;;28.72;22.56;101129.56;4420044;32;20608;-73
2022/03/15 12:55:39;;;;;;;;;;;;;;;29.97;21.61;101109.91;3949285;32;15744555;-73
2022/03/15 12:58:06;;;;;;;;;;;;;;;29.97;21.61;101109.91;4430936;32;20323;-73
2022/03/15 13:00:38;;;;;;;;;;;;;;;29.42;21.55;101111.22;4419667;32;19992;-72
2022/03/15 13:03:07;;;;;;;;;;;;;;;29.83;21.11;101096.03;4434063;32;20365;-73
2022/03/15 13:05:37;;;;;;;;;;;;;;;29.33;21.73;101091.41;4432641;32;19996;-73
2022/03/15 13:08:04;;;;;;;;;;;;;;;28.98;22.02;101089.75;4432470;32;20052;-73
2022/03/15 13:10:52;;;;;;;;;;;;;;;28.43;22.66;101095.84;4432344;32;20119;-73
2022/03/15 13:15:59;;;;;;;;;;;;;;;27.13;23.89;101075.84;3948414;32;15722725;-73
2022/03/15 13:18:45;;;;;;;;;;;;;;;26.54;24.91;101070.25;4422434;32;19958;-73
2022/03/15 13:21:16;;;;;;;;;;;;;;;26.59;24.58;101073.06;4426075;32;20025;-72
2022/03/15 13:23:45;;;;;;;;;;;;;;;26.85;23.83;101069.66;4427440;32;20012;-74
2022/03/15 13:26:12;;;;;;;;;;;;;;;27.21;23.37;101065.19;4423282;32;19972;-72
2022/03/15 13:28:51;;;;;;;;;;;;;;;27.72;22.76;101068.94;4427773;32;20003;-73
2022/03/15 13:31:18;;;;;;;;;;;;;;;27.96;22.45;101063.03;4425877;32;20267;-73
2022/03/15 13:33:50;;;;;;;;;;;;;;;28.54;22.04;101058.03;4423261;32;20420;-72
2022/03/15 13:36:18;;;;;;;;;;;;;;;29.09;21.50;101056.09;4426665;32;20008;-73
2022/03/15 13:38:47;;;;;;;;;;;;;;;28.19;22.07;101052.62;4426198;32;20004;-73
2022/03/15 13:41:14;;;;;;;;;;;;;;;28.55;21.74;101048.78;4422282;32;20275;-73